sensor_id;sensor_type;location;lat;lon;timestamp;pressure;altitude;pressure_sealevel;temperature;humidity
40994;BME280;26722;43.212;27.932;2022-11-12T07:50:27;55132.97;;;-146.72;80.82
40994;BME280;26722;43.212;27.932;2022-11-12T07:52:53;55137.22;;;-146.72;81.33
40994;BME280;26722;43.212;27.932;2022-11-12T07:55:18;55120.31;;;-146.72;81.48
40994;BME280;26722;43.212;27.932;2022-11-12T07:57:43;55128.75;;;-146.72;81.48
40994;BME280;26722;43.212;27.932;2022-11-12T08:00:09;55124.53;;;-146.72;81.29
40994;BME280;26722;43.212;27.932;2022-11-12T08:02:36;55116.09;;;-146.72;81.32
40994;BME280;26722;43.212;27.932;2022-11-12T08:05:01;55122.44;;;-146.72;80.49
40994;BME280;26722;43.212;27.932;2022-11-12T08:07:27;55120.31;;;-146.72;80.48
40994;BME280;26722;43.212;27.932;2022-11-12T08:09:52;55149.88;;;-146.72;80.44
40994;BME280;26722;43.212;27.932;2022-11-12T08:12:18;55120.31;;;-146.72;80.38
40994;BME280;26722;43.212;27.932;2022-11-12T08:14:44;55124.53;;;-146.72;80.38
40994;BME280;26722;43.212;27.932;2022-11-12T08:17:09;55132.97;;;-146.72;80.30
40994;BME280;26722;43.212;27.932;2022-11-12T08:19:35;55132.97;;;-146.72;80.37
40994;BME280;26722;43.212;27.932;2022-11-12T08:22:00;55120.31;;;-146.72;80.02
40994;BME280;26722;43.212;27.932;2022-11-12T08:24:26;55124.53;;;-146.72;79.69
40994;BME280;26722;43.212;27.932;2022-11-12T08:26:51;55109.75;;;-146.72;79.19
40994;BME280;26722;43.212;27.932;2022-11-12T08:29:17;55124.53;;;-146.72;78.98
40994;BME280;26722;43.212;27.932;2022-11-12T08:31:42;55103.44;;;-146.72;78.34
40994;BME280;26722;43.212;27.932;2022-11-12T08:34:10;55124.53;;;-146.72;77.85
40994;BME280;26722;43.212;27.932;2022-11-12T08:36:38;55116.09;;;-146.72;77.39
40994;BME280;26722;43.212;27.932;2022-11-12T08:39:05;55107.66;;;-146.72;76.27
40994;BME280;26722;43.212;27.932;2022-11-12T08:41:31;55101.31;;;-146.72;75.53
40994;BME280;26722;43.212;27.932;2022-11-12T08:43:57;55118.19;;;-146.72;75.36
40994;BME280;26722;43.212;27.932;2022-11-12T08:46:22;55105.53;;;-146.72;75.09
40994;BME280;26722;43.212;27.932;2022-11-12T08:48:48;55090.75;;;-146.72;75.21
40994;BME280;26722;43.212;27.932;2022-11-12T08:51:14;55086.53;;;-146.72;75.20
40994;BME280;26722;43.212;27.932;2022-11-12T08:53:39;55099.19;;;-146.72;75.34
40994;BME280;26722;43.212;27.932;2022-11-12T08:56:05;55094.97;;;-146.72;75.09
40994;BME280;26722;43.212;27.932;2022-11-12T08:58:31;55099.19;;;-146.72;74.27
40994;BME280;26722;43.212;27.932;2022-11-12T09:01:02;55097.09;;;-146.72;73.58
40994;BME280;26722;43.212;27.932;2022-11-12T09:03:27;55075.97;;;-146.72;73.42
40994;BME280;26722;43.212;27.932;2022-11-12T09:05:53;55086.53;;;-146.72;72.42
40994;BME280;26722;43.212;27.932;2022-11-12T09:08:21;55073.88;;;-146.72;71.65
40994;BME280;26722;43.212;27.932;2022-11-12T09:10:48;55065.41;;;-146.72;70.77
40994;BME280;26722;43.212;27.932;2022-11-12T09:13:14;55069.66;;;-146.72;70.10
40994;BME280;26722;43.212;27.932;2022-11-12T09:15:41;55075.97;;;-146.72;69.19
40994;BME280;26722;43.212;27.932;2022-11-12T09:18:11;55065.41;;;-146.72;69.14
40994;BME280;26722;43.212;27.932;2022-11-12T09:20:37;55059.09;;;-146.72;69.40
40994;BME280;26722;43.212;27.932;2022-11-12T09:23:05;55056.97;;;-146.72;68.92
40994;BME280;26722;43.212;27.932;2022-11-12T09:25:32;55063.31;;;-146.72;68.25
40994;BME280;26722;43.212;27.932;2022-11-12T09:28:05;55071.75;;;-146.72;68.06
40994;BME280;26722;43.212;27.932;2022-11-12T09:30:30;55069.66;;;-146.72;67.48
40994;BME280;26722;43.212;27.932;2022-11-12T09:32:56;55059.09;;;-146.72;67.38
40994;BME280;26722;43.212;27.932;2022-11-12T09:35:22;55061.19;;;-146.72;66.33
40994;BME280;26722;43.212;27.932;2022-11-12T09:37:48;55052.75;;;-146.72;66.57
40994;BME280;26722;43.212;27.932;2022-11-12T09:40:18;55061.19;;;-146.72;66.94
40994;BME280;26722;43.212;27.932;2022-11-12T09:42:46;55059.09;;;-146.72;65.63
40994;BME280;26722;43.212;27.932;2022-11-12T09:45:21;55052.75;;;-146.72;65.76
40994;BME280;26722;43.212;27.932;2022-11-12T09:48:02;55037.97;;;-146.72;64.42
40994;BME280;26722;43.212;27.932;2022-11-12T09:50:39;55056.97;;;-146.72;63.95
40994;BME280;26722;43.212;27.932;2022-11-12T09:53:20;55054.88;;;-146.72;63.16
40994;BME280;26722;43.212;27.932;2022-11-12T09:55:48;55046.41;;;-146.72;62.34
40994;BME280;26722;43.212;27.932;2022-11-12T09:58:16;55037.97;;;-146.72;61.54
40994;BME280;26722;43.212;27.932;2022-11-12T10:03:40;55044.31;;;-146.72;61.63
40994;BME280;26722;43.212;27.932;2022-11-12T10:06:15;55035.88;;;-146.72;60.30
40994;BME280;26722;43.212;27.932;2022-11-12T10:08:49;55035.88;;;-146.72;60.21
40994;BME280;26722;43.212;27.932;2022-11-12T10:24:48;55052.75;;;-146.72;61.16
40994;BME280;26722;43.212;27.932;2022-11-12T10:27:21;55037.97;;;-146.72;61.99
40994;BME280;26722;43.212;27.932;2022-11-12T10:30:03;55048.53;;;-146.72;62.42
40994;BME280;26722;43.212;27.932;2022-11-12T10:32:30;55054.88;;;-146.72;61.81
40994;BME280;26722;43.212;27.932;2022-11-12T10:34:55;55052.75;;;-146.72;62.67
40994;BME280;26722;43.212;27.932;2022-11-12T10:37:33;55059.09;;;-146.72;63.05
40994;BME280;26722;43.212;27.932;2022-11-12T10:45:40;55048.53;;;-146.72;63.11
40994;BME280;26722;43.212;27.932;2022-11-12T10:48:22;55056.97;;;-146.72;63.09
40994;BME280;26722;43.212;27.932;2022-11-12T10:50:48;55050.66;;;-146.72;63.03
40994;BME280;26722;43.212;27.932;2022-11-12T10:53:31;55061.19;;;-146.72;62.90
40994;BME280;26722;43.212;27.932;2022-11-12T10:55:59;55052.75;;;-146.72;62.00
40994;BME280;26722;43.212;27.932;2022-11-12T10:58:25;55065.41;;;-146.72;63.47
40994;BME280;26722;43.212;27.932;2022-11-12T11:01:04;55044.31;;;-146.72;63.00
40994;BME280;26722;43.212;27.932;2022-11-12T11:03:36;55063.31;;;-146.72;62.58
40994;BME280;26722;43.212;27.932;2022-11-12T11:08:51;55054.88;;;-146.72;64.55
40994;BME280;26722;43.212;27.932;2022-11-12T11:11:23;55065.41;;;-146.72;65.07
40994;BME280;26722;43.212;27.932;2022-11-12T11:13:51;55069.66;;;-146.72;65.58
40994;BME280;26722;43.212;27.932;2022-11-12T11:16:50;55071.75;;;-146.72;65.77
40994;BME280;26722;43.212;27.932;2022-11-12T11:19:16;55063.31;;;-146.72;66.47
40994;BME280;26722;43.212;27.932;2022-11-12T11:30:17;55075.97;;;-146.72;66.02
40994;BME280;26722;43.212;27.932;2022-11-12T11:35:52;55086.53;;;-146.72;66.39
40994;BME280;26722;43.212;27.932;2022-11-12T11:51:24;55078.09;;;-146.72;64.86
40994;BME280;26722;43.212;27.932;2022-11-12T11:54:23;55065.41;;;-146.72;64.84
40994;BME280;26722;43.212;27.932;2022-11-12T11:56:58;55063.31;;;-146.72;65.14
40994;BME280;26722;43.212;27.932;2022-11-12T12:08:10;55073.88;;;-146.72;65.38
40994;BME280;26722;43.212;27.932;2022-11-12T12:13:57;55086.53;;;-146.72;66.30
40994;BME280;26722;43.212;27.932;2022-11-12T12:16:44;55094.97;;;-146.72;66.30
40994;BME280;26722;43.212;27.932;2022-11-12T12:21:40;55082.31;;;-146.72;66.80
40994;BME280;26722;43.212;27.932;2022-11-12T12:26:47;55082.31;;;-146.72;67.49
40994;BME280;26722;43.212;27.932;2022-11-12T12:29:21;55082.31;;;-146.72;67.77
40994;BME280;26722;43.212;27.932;2022-11-12T12:31:51;55086.53;;;-146.72;68.05
40994;BME280;26722;43.212;27.932;2022-11-12T12:34:28;55092.88;;;-146.72;68.14
40994;BME280;26722;43.212;27.932;2022-11-12T12:37:34;55082.31;;;-146.72;68.78
40994;BME280;26722;43.212;27.932;2022-11-12T12:39:57;55094.97;;;-146.72;68.60
40994;BME280;26722;43.212;27.932;2022-11-12T12:42:36;55090.75;;;-146.72;68.71
40994;BME280;26722;43.212;27.932;2022-11-12T12:48:19;55090.75;;;-146.72;68.73
40994;BME280;26722;43.212;27.932;2022-11-12T12:50:46;55071.75;;;-146.72;68.81
40994;BME280;26722;43.212;27.932;2022-11-12T12:53:29;55088.66;;;-146.72;68.73
40994;BME280;26722;43.212;27.932;2022-11-12T12:55:57;55086.53;;;-146.72;68.58
40994;BME280;26722;43.212;27.932;2022-11-12T13:06:39;55073.88;;;-146.72;69.07
40994;BME280;26722;43.212;27.932;2022-11-12T13:19:34;55069.66;;;-146.72;68.86
40994;BME280;26722;43.212;27.932;2022-11-12T13:38:01;55090.75;;;-146.72;70.47
40994;BME280;26722;43.212;27.932;2022-11-12T13:43:42;55099.19;;;-146.72;70.12
40994;BME280;26722;43.212;27.932;2022-11-12T13:51:11;55099.19;;;-146.72;70.07
40994;BME280;26722;43.212;27.932;2022-11-12T13:53:39;55107.66;;;-146.72;70.06
40994;BME280;26722;43.212;27.932;2022-11-12T13:56:04;55092.88;;;-146.72;69.79
40994;BME280;26722;43.212;27.932;2022-11-12T13:58:32;55099.19;;;-146.72;69.50
40994;BME280;26722;43.212;27.932;2022-11-12T14:01:03;55111.88;;;-146.72;69.80
40994;BME280;26722;43.212;27.932;2022-11-12T14:03:43;55084.44;;;-146.72;69.94
40994;BME280;26722;43.212;27.932;2022-11-12T14:06:16;55090.75;;;-146.72;70.08
40994;BME280;26722;43.212;27.932;2022-11-12T14:12:01;55094.97;;;-146.72;70.19
40994;BME280;26722;43.212;27.932;2022-11-12T14:22:20;55086.53;;;-146.72;70.87
40994;BME280;26722;43.212;27.932;2022-11-12T14:24:51;55099.19;;;-146.72;70.70
40994;BME280;26722;43.212;27.932;2022-11-12T14:30:14;55092.88;;;-146.72;71.42
40994;BME280;26722;43.212;27.932;2022-11-12T14:32:43;55107.66;;;-146.72;71.18
40994;BME280;26722;43.212;27.932;2022-11-12T14:38:37;55103.44;;;-146.72;70.93
40994;BME280;26722;43.212;27.932;2022-11-12T14:40:58;55111.88;;;-146.72;71.34
40994;BME280;26722;43.212;27.932;2022-11-12T14:43:40;55099.19;;;-146.72;71.44
40994;BME280;26722;43.212;27.932;2022-11-12T14:46:18;55116.09;;;-146.72;71.74
40994;BME280;26722;43.212;27.932;2022-11-12T14:48:48;55107.66;;;-146.72;72.21
40994;BME280;26722;43.212;27.932;2022-11-12T14:51:15;55092.88;;;-146.72;72.58
40994;BME280;26722;43.212;27.932;2022-11-12T14:54:05;55097.09;;;-146.72;72.95
40994;BME280;26722;43.212;27.932;2022-11-12T14:56:36;55113.97;;;-146.72;73.37
40994;BME280;26722;43.212;27.932;2022-11-12T14:59:03;55116.09;;;-146.72;73.75
40994;BME280;26722;43.212;27.932;2022-11-12T15:01:34;55111.88;;;-146.72;74.21
40994;BME280;26722;43.212;27.932;2022-11-12T15:04:18;55126.66;;;-146.72;74.52
40994;BME280;26722;43.212;27.932;2022-11-12T15:06:51;55116.09;;;-146.72;74.87
40994;BME280;26722;43.212;27.932;2022-11-12T15:09:18;55107.66;;;-146.72;75.32
40994;BME280;26722;43.212;27.932;2022-11-12T15:11:47;55109.75;;;-146.72;75.56
40994;BME280;26722;43.212;27.932;2022-11-12T15:14:21;55097.09;;;-146.72;75.53
40994;BME280;26722;43.212;27.932;2022-11-12T15:16:48;55130.88;;;-146.72;75.72
40994;BME280;26722;43.212;27.932;2022-11-12T15:19:20;55124.53;;;-146.72;75.99
40994;BME280;26722;43.212;27.932;2022-11-12T15:21:52;55111.88;;;-146.72;75.96
40994;BME280;26722;43.212;27.932;2022-11-12T15:24:29;55124.53;;;-146.72;75.95
40994;BME280;26722;43.212;27.932;2022-11-12T15:27:01;55116.09;;;-146.72;76.29
40994;BME280;26722;43.212;27.932;2022-11-12T15:29:32;55124.53;;;-146.72;76.53
40994;BME280;26722;43.212;27.932;2022-11-12T15:32:25;55151.97;;;-146.72;76.75
40994;BME280;26722;43.212;27.932;2022-11-12T15:34:48;55145.66;;;-146.72;76.97
40994;BME280;26722;43.212;27.932;2022-11-12T15:39:45;55124.53;;;-146.72;77.18
40994;BME280;26722;43.212;27.932;2022-11-12T15:42:21;55111.88;;;-146.72;77.31
40994;BME280;26722;43.212;27.932;2022-11-12T15:44:49;55122.44;;;-146.72;77.41
40994;BME280;26722;43.212;27.932;2022-11-12T15:47:20;55124.53;;;-146.72;77.63
40994;BME280;26722;43.212;27.932;2022-11-12T15:49:47;55113.97;;;-146.72;77.58
40994;BME280;26722;43.212;27.932;2022-11-12T15:52:13;55128.75;;;-146.72;77.69
40994;BME280;26722;43.212;27.932;2022-11-12T15:54:39;55132.97;;;-146.72;77.83
40994;BME280;26722;43.212;27.932;2022-11-12T15:57:06;55126.66;;;-146.72;77.89
40994;BME280;26722;43.212;27.932;2022-11-12T15:59:32;55130.88;;;-146.72;77.75
40994;BME280;26722;43.212;27.932;2022-11-12T16:01:58;55107.66;;;-146.72;77.83
40994;BME280;26722;43.212;27.932;2022-11-12T16:04:23;55128.75;;;-146.72;77.73
40994;BME280;26722;43.212;27.932;2022-11-12T16:06:49;55124.53;;;-146.72;77.68
40994;BME280;26722;43.212;27.932;2022-11-12T16:09:14;55135.09;;;-146.72;77.54
40994;BME280;26722;43.212;27.932;2022-11-12T16:11:40;55109.75;;;-146.72;77.62
40994;BME280;26722;43.212;27.932;2022-11-12T16:14:10;55105.53;;;-146.72;77.61
40994;BME280;26722;43.212;27.932;2022-11-12T16:16:37;55124.53;;;-146.72;77.54
40994;BME280;26722;43.212;27.932;2022-11-12T16:19:10;55141.44;;;-146.72;77.70
40994;BME280;26722;43.212;27.932;2022-11-12T16:21:36;55141.44;;;-146.72;77.63
40994;BME280;26722;43.212;27.932;2022-11-12T16:24:02;55126.66;;;-146.72;77.26
40994;BME280;26722;43.212;27.932;2022-11-12T16:26:29;55116.09;;;-146.72;77.63
40994;BME280;26722;43.212;27.932;2022-11-12T16:28:55;55124.53;;;-146.72;77.92
40994;BME280;26722;43.212;27.932;2022-11-12T16:31:22;55116.09;;;-146.72;77.94
40994;BME280;26722;43.212;27.932;2022-11-12T16:33:48;55132.97;;;-146.72;78.25
40994;BME280;26722;43.212;27.932;2022-11-12T16:36:14;55132.97;;;-146.72;78.27
40994;BME280;26722;43.212;27.932;2022-11-12T16:38:40;55137.22;;;-146.72;78.05
40994;BME280;26722;43.212;27.932;2022-11-12T16:41:09;55128.75;;;-146.72;78.28
40994;BME280;26722;43.212;27.932;2022-11-12T16:43:34;55124.53;;;-146.72;78.57
40994;BME280;26722;43.212;27.932;2022-11-12T16:46:00;55130.88;;;-146.72;78.30
40994;BME280;26722;43.212;27.932;2022-11-12T16:48:25;55137.22;;;-146.72;78.20
40994;BME280;26722;43.212;27.932;2022-11-12T16:50:51;55137.22;;;-146.72;78.33
40994;BME280;26722;43.212;27.932;2022-11-12T16:53:16;55141.44;;;-146.72;78.23
40994;BME280;26722;43.212;27.932;2022-11-12T16:55:42;55130.88;;;-146.72;78.20
40994;BME280;26722;43.212;27.932;2022-11-12T16:58:14;55103.44;;;-146.72;77.94
40994;BME280;26722;43.212;27.932;2022-11-12T17:00:41;55103.44;;;-146.72;77.70
40994;BME280;26722;43.212;27.932;2022-11-12T17:03:10;55132.97;;;-146.72;77.59
40994;BME280;26722;43.212;27.932;2022-11-12T17:05:37;55120.31;;;-146.72;77.36
40994;BME280;26722;43.212;27.932;2022-11-12T17:08:02;55132.97;;;-146.72;77.24
40994;BME280;26722;43.212;27.932;2022-11-12T17:10:27;55122.44;;;-146.72;76.87
40994;BME280;26722;43.212;27.932;2022-11-12T17:12:53;55128.75;;;-146.72;76.48
40994;BME280;26722;43.212;27.932;2022-11-12T17:15:18;55132.97;;;-146.72;76.45
40994;BME280;26722;43.212;27.932;2022-11-12T17:17:44;55124.53;;;-146.72;76.39
40994;BME280;26722;43.212;27.932;2022-11-12T17:20:10;55120.31;;;-146.72;76.51
40994;BME280;26722;43.212;27.932;2022-11-12T17:22:36;55126.66;;;-146.72;76.40
40994;BME280;26722;43.212;27.932;2022-11-12T17:25:02;55126.66;;;-146.72;76.42
40994;BME280;26722;43.212;27.932;2022-11-12T17:27:27;55128.75;;;-146.72;76.42
40994;BME280;26722;43.212;27.932;2022-11-12T17:29:53;55109.75;;;-146.72;76.19
40994;BME280;26722;43.212;27.932;2022-11-12T17:32:18;55111.88;;;-146.72;76.06
40994;BME280;26722;43.212;27.932;2022-11-12T17:34:44;55128.75;;;-146.72;76.06
40994;BME280;26722;43.212;27.932;2022-11-12T17:37:09;55132.97;;;-146.72;76.30
40994;BME280;26722;43.212;27.932;2022-11-12T17:39:35;55137.22;;;-146.72;76.29
40994;BME280;26722;43.212;27.932;2022-11-12T17:42:00;55097.09;;;-146.72;76.43
40994;BME280;26722;43.212;27.932;2022-11-12T17:44:26;55128.75;;;-146.72;76.51
40994;BME280;26722;43.212;27.932;2022-11-12T17:46:51;55126.66;;;-146.72;76.56
40994;BME280;26722;43.212;27.932;2022-11-12T17:49:17;55113.97;;;-146.72;76.45
40994;BME280;26722;43.212;27.932;2022-11-12T17:51:43;55151.97;;;-146.72;76.56
40994;BME280;26722;43.212;27.932;2022-11-12T17:54:08;55141.44;;;-146.72;76.26
40994;BME280;26722;43.212;27.932;2022-11-12T17:56:34;55128.75;;;-146.72;76.10
40994;BME280;26722;43.212;27.932;2022-11-12T17:59:00;55116.09;;;-146.72;75.84
40994;BME280;26722;43.212;27.932;2022-11-12T18:01:28;55126.66;;;-146.72;75.74
40994;BME280;26722;43.212;27.932;2022-11-12T18:03:55;55132.97;;;-146.72;75.72
40994;BME280;26722;43.212;27.932;2022-11-12T18:06:30;55120.31;;;-146.72;75.58
40994;BME280;26722;43.212;27.932;2022-11-12T18:09:00;55113.97;;;-146.72;75.46
40994;BME280;26722;43.212;27.932;2022-11-12T18:11:28;55135.09;;;-146.72;75.48
40994;BME280;26722;43.212;27.932;2022-11-12T18:13:54;55128.75;;;-146.72;75.29
40994;BME280;26722;43.212;27.932;2022-11-12T18:16:27;55120.31;;;-146.72;75.43
40994;BME280;26722;43.212;27.932;2022-11-12T18:18:55;55120.31;;;-146.72;75.35
40994;BME280;26722;43.212;27.932;2022-11-12T18:21:21;55130.88;;;-146.72;75.53
40994;BME280;26722;43.212;27.932;2022-11-12T18:23:47;55132.97;;;-146.72;75.61
40994;BME280;26722;43.212;27.932;2022-11-12T18:26:14;55132.97;;;-146.72;75.60
40994;BME280;26722;43.212;27.932;2022-11-12T18:28:43;55139.31;;;-146.72;75.78
40994;BME280;26722;43.212;27.932;2022-11-12T18:31:11;55130.88;;;-146.72;75.80
40994;BME280;26722;43.212;27.932;2022-11-12T18:33:37;55124.53;;;-146.72;76.10
40994;BME280;26722;43.212;27.932;2022-11-12T18:36:05;55137.22;;;-146.72;76.13
40994;BME280;26722;43.212;27.932;2022-11-12T18:38:32;55126.66;;;-146.72;76.24
40994;BME280;26722;43.212;27.932;2022-11-12T18:41:06;55120.31;;;-146.72;76.27
40994;BME280;26722;43.212;27.932;2022-11-12T18:43:31;55151.97;;;-146.72;76.26
40994;BME280;26722;43.212;27.932;2022-11-12T18:45:58;55122.44;;;-146.72;76.45
40994;BME280;26722;43.212;27.932;2022-11-12T18:48:25;55128.75;;;-146.72;76.24
40994;BME280;26722;43.212;27.932;2022-11-12T18:50:51;55137.22;;;-146.72;76.24
40994;BME280;26722;43.212;27.932;2022-11-12T18:53:16;55135.09;;;-146.72;75.95
40994;BME280;26722;43.212;27.932;2022-11-12T18:55:42;55128.75;;;-146.72;75.90
40994;BME280;26722;43.212;27.932;2022-11-12T18:58:07;55141.44;;;-146.72;75.83
40994;BME280;26722;43.212;27.932;2022-11-12T19:00:33;55128.75;;;-146.72;75.56
40994;BME280;26722;43.212;27.932;2022-11-12T19:02:59;55126.66;;;-146.72;75.49
40994;BME280;26722;43.212;27.932;2022-11-12T19:05:24;55141.44;;;-146.72;75.66
40994;BME280;26722;43.212;27.932;2022-11-12T19:07:50;55120.31;;;-146.72;75.65
40994;BME280;26722;43.212;27.932;2022-11-12T19:10:15;55145.66;;;-146.72;75.88
40994;BME280;26722;43.212;27.932;2022-11-12T19:12:41;55128.75;;;-146.72;75.83
40994;BME280;26722;43.212;27.932;2022-11-12T19:15:07;55122.44;;;-146.72;75.73
40994;BME280;26722;43.212;27.932;2022-11-12T19:17:32;55113.97;;;-146.72;75.83
40994;BME280;26722;43.212;27.932;2022-11-12T19:19:58;55128.75;;;-146.72;75.78
40994;BME280;26722;43.212;27.932;2022-11-12T19:22:23;55124.53;;;-146.72;75.66
40994;BME280;26722;43.212;27.932;2022-11-12T19:24:49;55135.09;;;-146.72;75.84
40994;BME280;26722;43.212;27.932;2022-11-12T19:27:14;55124.53;;;-146.72;75.72
40994;BME280;26722;43.212;27.932;2022-11-12T19:29:40;55135.09;;;-146.72;75.74
40994;BME280;26722;43.212;27.932;2022-11-12T19:32:05;55132.97;;;-146.72;75.69
40994;BME280;26722;43.212;27.932;2022-11-12T19:34:32;55145.66;;;-146.72;75.37
40994;BME280;26722;43.212;27.932;2022-11-12T19:36:57;55116.09;;;-146.72;75.61
40994;BME280;26722;43.212;27.932;2022-11-12T19:39:23;55116.09;;;-146.72;75.41
40994;BME280;26722;43.212;27.932;2022-11-12T19:41:48;55120.31;;;-146.72;75.27
40994;BME280;26722;43.212;27.932;2022-11-12T19:44:14;55124.53;;;-146.72;75.12
40994;BME280;26722;43.212;27.932;2022-11-12T19:46:39;55135.09;;;-146.72;75.30
40994;BME280;26722;43.212;27.932;2022-11-12T19:49:05;55113.97;;;-146.72;75.52
40994;BME280;26722;43.212;27.932;2022-11-12T19:51:30;55116.09;;;-146.72;75.70
40994;BME280;26722;43.212;27.932;2022-11-12T19:53:56;55120.31;;;-146.72;75.62
40994;BME280;26722;43.212;27.932;2022-11-12T19:56:21;55120.31;;;-146.72;75.79
40994;BME280;26722;43.212;27.932;2022-11-12T19:58:47;55132.97;;;-146.72;75.69
40994;BME280;26722;43.212;27.932;2022-11-12T20:01:15;55132.97;;;-146.72;75.58
40994;BME280;26722;43.212;27.932;2022-11-12T20:03:41;55120.31;;;-146.72;75.69
40994;BME280;26722;43.212;27.932;2022-11-12T20:06:11;55120.31;;;-146.72;75.71
40994;BME280;26722;43.212;27.932;2022-11-12T20:08:37;55137.22;;;-146.72;75.90
40994;BME280;26722;43.212;27.932;2022-11-12T20:11:03;55109.75;;;-146.72;75.67
40994;BME280;26722;43.212;27.932;2022-11-12T20:13:29;55122.44;;;-146.72;75.38
40994;BME280;26722;43.212;27.932;2022-11-12T20:15:55;55124.53;;;-146.72;75.28
40994;BME280;26722;43.212;27.932;2022-11-12T20:18:20;55130.88;;;-146.72;74.99
40994;BME280;26722;43.212;27.932;2022-11-12T20:20:52;55113.97;;;-146.72;75.04
40994;BME280;26722;43.212;27.932;2022-11-12T20:23:18;55126.66;;;-146.72;74.91
40994;BME280;26722;43.212;27.932;2022-11-12T20:25:44;55103.44;;;-146.72;74.67
40994;BME280;26722;43.212;27.932;2022-11-12T20:28:10;55111.88;;;-146.72;74.78
40994;BME280;26722;43.212;27.932;2022-11-12T20:30:35;55116.09;;;-146.72;74.46
40994;BME280;26722;43.212;27.932;2022-11-12T20:33:01;55111.88;;;-146.72;73.98
40994;BME280;26722;43.212;27.932;2022-11-12T20:35:27;55107.66;;;-146.72;74.04
40994;BME280;26722;43.212;27.932;2022-11-12T20:37:52;55107.66;;;-146.72;73.99
40994;BME280;26722;43.212;27.932;2022-11-12T20:40:18;55128.75;;;-146.72;74.16
40994;BME280;26722;43.212;27.932;2022-11-12T20:42:43;55120.31;;;-146.72;73.99
40994;BME280;26722;43.212;27.932;2022-11-12T20:45:10;55128.75;;;-146.72;74.21
40994;BME280;26722;43.212;27.932;2022-11-12T20:47:36;55116.09;;;-146.72;74.31
40994;BME280;26722;43.212;27.932;2022-11-12T20:50:03;55124.53;;;-146.72;74.28
40994;BME280;26722;43.212;27.932;2022-11-12T20:52:29;55113.97;;;-146.72;74.19
40994;BME280;26722;43.212;27.932;2022-11-12T20:54:54;55124.53;;;-146.72;74.53
40994;BME280;26722;43.212;27.932;2022-11-12T20:57:19;55118.19;;;-146.72;74.88
40994;BME280;26722;43.212;27.932;2022-11-12T20:59:45;55118.19;;;-146.72;74.93
40994;BME280;26722;43.212;27.932;2022-11-12T21:02:10;55116.09;;;-146.72;75.19
40994;BME280;26722;43.212;27.932;2022-11-12T21:04:36;55126.66;;;-146.72;75.42
40994;BME280;26722;43.212;27.932;2022-11-12T21:07:02;55130.88;;;-146.72;75.58
40994;BME280;26722;43.212;27.932;2022-11-12T21:09:27;55124.53;;;-146.72;75.93
40994;BME280;26722;43.212;27.932;2022-11-12T21:11:52;55132.97;;;-146.72;76.18
40994;BME280;26722;43.212;27.932;2022-11-12T21:14:18;55128.75;;;-146.72;76.22
40994;BME280;26722;43.212;27.932;2022-11-12T21:16:43;55120.31;;;-146.72;76.37
40994;BME280;26722;43.212;27.932;2022-11-12T21:19:09;55111.88;;;-146.72;76.46
40994;BME280;26722;43.212;27.932;2022-11-12T21:21:34;55122.44;;;-146.72;76.43
40994;BME280;26722;43.212;27.932;2022-11-12T21:24:00;55139.31;;;-146.72;76.56
40994;BME280;26722;43.212;27.932;2022-11-12T21:26:25;55149.88;;;-146.72;76.59
40994;BME280;26722;43.212;27.932;2022-11-12T21:28:53;55122.44;;;-146.72;76.68
40994;BME280;26722;43.212;27.932;2022-11-12T21:31:26;55137.22;;;-146.72;76.66
40994;BME280;26722;43.212;27.932;2022-11-12T21:33:54;55137.22;;;-146.72;76.94
40994;BME280;26722;43.212;27.932;2022-11-12T21:36:21;55139.31;;;-146.72;76.69
40994;BME280;26722;43.212;27.932;2022-11-12T21:38:46;55132.97;;;-146.72;76.89
40994;BME280;26722;43.212;27.932;2022-11-12T21:41:15;55154.09;;;-146.72;77.09
40994;BME280;26722;43.212;27.932;2022-11-12T21:43:42;55120.31;;;-146.72;77.42
40994;BME280;26722;43.212;27.932;2022-11-12T21:46:14;55145.66;;;-146.72;77.33
40994;BME280;26722;43.212;27.932;2022-11-12T21:48:40;55139.31;;;-146.72;77.13
40994;BME280;26722;43.212;27.932;2022-11-12T21:51:13;55139.31;;;-146.72;77.10
40994;BME280;26722;43.212;27.932;2022-11-12T21:53:39;55145.66;;;-146.72;76.89
40994;BME280;26722;43.212;27.932;2022-11-12T21:56:12;55141.44;;;-146.72;77.05
40994;BME280;26722;43.212;27.932;2022-11-12T21:58:38;55147.75;;;-146.72;77.44
40994;BME280;26722;43.212;27.932;2022-11-12T22:03:35;55137.22;;;-146.72;77.42
40994;BME280;26722;43.212;27.932;2022-11-12T22:06:00;55128.75;;;-146.72;77.20
40994;BME280;26722;43.212;27.932;2022-11-12T22:08:26;55128.75;;;-146.72;76.89
40994;BME280;26722;43.212;27.932;2022-11-12T22:10:58;55156.22;;;-146.72;77.01
40994;BME280;26722;43.212;27.932;2022-11-12T22:13:23;55149.88;;;-146.72;77.23
40994;BME280;26722;43.212;27.932;2022-11-12T22:15:49;55128.75;;;-146.72;77.12
40994;BME280;26722;43.212;27.932;2022-11-12T22:18:14;55137.22;;;-146.72;76.99
40994;BME280;26722;43.212;27.932;2022-11-12T22:20:40;55154.09;;;-146.72;76.77
40994;BME280;26722;43.212;27.932;2022-11-12T22:23:05;55141.44;;;-146.72;76.95
40994;BME280;26722;43.212;27.932;2022-11-12T22:25:31;55158.31;;;-146.72;77.06
40994;BME280;26722;43.212;27.932;2022-11-12T22:27:56;55137.22;;;-146.72;77.55
40994;BME280;26722;43.212;27.932;2022-11-12T22:30:22;55162.53;;;-146.72;77.91
40994;BME280;26722;43.212;27.932;2022-11-12T22:32:47;55132.97;;;-146.72;78.38
40994;BME280;26722;43.212;27.932;2022-11-12T22:35:12;55164.66;;;-146.72;78.43
40994;BME280;26722;43.212;27.932;2022-11-12T22:37:38;55154.09;;;-146.72;78.04
40994;BME280;26722;43.212;27.932;2022-11-12T22:40:04;55139.31;;;-146.72;77.78